Time;durP1;ratioP1;P1;durP2;ratioP2;P2;SDS_P1;SDS_P2;PMS_P1;PMS_P2;Temp;Humidity;BMP_temperature;BMP_pressure;BME280_temperature;BME280_humidity;BME280_pressure;Samples;Min_cycle;Max_cycle;Signal;HPM_P1;HPM_P2
2023/08/13 00:02:03;;;;;;;9.97;9.43;;;;;;;19.42;73.20;93308.50;5091261;28;20228;-76
2023/08/13 00:04:28;;;;;;;9.97;9.37;;;;;;;19.44;73.23;93306.28;5090355;28;20191;-75
2023/08/13 00:06:53;;;;;;;10.43;9.83;;;;;;;19.40;74.16;93300.09;5101169;28;20221;-75
2023/08/13 00:09:19;;;;;;;10.30;9.40;;;;;;;19.32;74.64;93305.38;5096478;28;20182;-75
2023/08/13 00:11:45;;;;;;;10.20;9.53;;;;;;;19.43;73.84;93304.75;5099571;28;20275;-75
2023/08/13 00:14:10;;;;;;;9.70;9.20;;;;;;;19.34;73.82;93290.75;5083428;28;20192;-76
2023/08/13 00:16:36;;;;;;;10.37;9.53;;;;;;;19.40;73.17;93301.94;5090685;28;20248;-76
2023/08/13 00:19:02;;;;;;;10.77;9.67;;;;;;;19.35;74.05;93310.06;5086233;28;20194;-75
2023/08/13 00:21:27;;;;;;;9.43;8.73;;;;;;;19.14;75.12;93297.44;5081639;28;20185;-75
2023/08/13 00:23:52;;;;;;;9.97;9.33;;;;;;;19.21;74.24;93307.56;5090634;28;20269;-75
2023/08/13 00:26:18;;;;;;;9.77;9.13;;;;;;;19.13;74.84;93303.84;5090918;28;20176;-75
2023/08/13 00:28:43;;;;;;;9.70;9.10;;;;;;;19.06;75.91;93308.06;5086635;28;20247;-75
2023/08/13 00:31:09;;;;;;;9.93;9.43;;;;;;;18.95;75.81;93306.81;5090547;28;20200;-75
2023/08/13 00:33:34;;;;;;;9.80;9.10;;;;;;;18.97;76.56;93310.69;5087848;28;20222;-75
2023/08/13 00:35:59;;;;;;;10.33;9.67;;;;;;;18.91;75.70;93304.00;5099258;28;20191;-76
2023/08/13 00:38:25;;;;;;;9.83;9.27;;;;;;;18.81;75.80;93298.25;5093445;28;20226;-76
2023/08/13 00:40:50;;;;;;;10.20;9.60;;;;;;;18.84;76.04;93297.63;5090426;28;20216;-75
2023/08/13 00:43:15;;;;;;;10.60;9.90;;;;;;;18.88;77.01;93309.13;5088836;28;20211;-75
2023/08/13 00:45:42;;;;;;;10.47;9.80;;;;;;;18.82;77.61;93307.75;5091096;28;20191;-75
2023/08/13 00:48:08;;;;;;;10.80;10.10;;;;;;;18.82;76.99;93303.22;5088551;28;20230;-75
2023/08/13 00:50:34;;;;;;;10.13;9.33;;;;;;;18.71;77.60;93306.50;5090449;28;20200;-75
2023/08/13 00:53:00;;;;;;;9.97;9.33;;;;;;;18.74;77.51;93303.25;5089098;28;20237;-75
2023/08/13 00:55:26;;;;;;;10.13;9.30;;;;;;;18.67;77.25;93302.91;5090447;28;20226;-75
2023/08/13 00:57:51;;;;;;;10.13;9.47;;;;;;;18.36;76.95;93266.00;5089087;28;20254;-75
2023/08/13 01:00:18;;;;;;;9.70;9.20;;;;;;;18.62;78.15;93300.44;5090182;28;20214;-75
2023/08/13 01:02:43;;;;;;;11.50;10.33;;;;;;;18.55;78.78;93297.47;5089494;28;20320;-75
2023/08/13 01:05:09;;;;;;;10.93;10.03;;;;;;;18.51;78.98;93299.16;5090036;28;20175;-75
2023/08/13 01:07:38;;;;;;;9.87;9.17;;;;;;;18.46;79.74;93296.69;5065720;28;20240;-75
2023/08/13 01:10:30;;;;;;;10.07;9.33;;;;;;;18.41;79.69;93287.03;5069746;28;20177;-76
2023/08/13 01:13:02;;;;;;;11.27;10.50;;;;;;;18.48;79.42;93302.44;5069341;28;20236;-75
2023/08/13 01:15:35;;;;;;;10.40;9.80;;;;;;;18.40;79.82;93297.91;5069927;28;20221;-76
2023/08/13 01:18:01;;;;;;;11.03;10.03;;;;;;;18.23;80.99;93293.34;5077171;28;20295;-76
2023/08/13 01:20:37;;;;;;;10.50;9.90;;;;;;;18.08;80.90;93280.56;5085616;28;21204;-75
2023/08/13 01:23:03;;;;;;;11.13;10.33;;;;;;;18.14;80.25;93291.78;5089300;28;20220;-76
2023/08/13 01:25:29;;;;;;;10.30;9.73;;;;;;;18.10;80.92;93293.47;5089447;28;20188;-75
2023/08/13 01:28:09;;;;;;;10.60;9.90;;;;;;;18.03;80.91;93283.34;5088778;28;20252;-75
2023/08/13 01:30:41;;;;;;;9.87;9.33;;;;;;;17.92;81.30;93284.72;5079918;28;20194;-75
2023/08/13 01:33:08;;;;;;;10.83;10.07;;;;;;;17.93;81.11;93282.88;5089586;28;20222;-76
2023/08/13 01:35:35;;;;;;;9.97;9.37;;;;;;;17.89;81.21;93293.25;5082636;28;20238;-75
2023/08/13 01:38:02;;;;;;;11.37;10.63;;;;;;;17.76;82.89;93294.13;5095974;28;20294;-75
2023/08/13 01:40:28;;;;;;;11.13;10.43;;;;;;;17.65;83.17;93295.50;5088136;28;20210;-76
2023/08/13 01:42:54;;;;;;;10.93;10.23;;;;;;;17.63;83.52;93288.97;5075695;28;20865;-75
2023/08/13 01:45:19;;;;;;;10.10;9.60;;;;;;;17.54;83.45;93300.25;5069756;28;20278;-75
2023/08/13 01:47:45;;;;;;;9.93;9.33;;;;;;;17.43;83.88;93290.25;5061257;28;20227;-75
2023/08/13 01:50:11;;;;;;;9.70;9.00;;;;;;;17.45;84.11;93288.91;5069006;28;20197;-76
2023/08/13 01:52:36;;;;;;;10.60;10.00;;;;;;;17.37;84.70;93288.81;5068684;28;20230;-76
2023/08/13 01:55:03;;;;;;;10.50;9.50;;;;;;;17.29;85.21;93285.03;5068038;28;20182;-75
2023/08/13 01:57:28;;;;;;;11.20;10.20;;;;;;;17.33;84.10;93295.78;5068640;28;20230;-76
2023/08/13 01:59:54;;;;;;;11.47;10.67;;;;;;;17.36;83.63;93289.91;5068829;28;20260;-75
2023/08/13 02:02:19;;;;;;;10.83;10.20;;;;;;;17.16;84.16;93274.59;5077106;28;20293;-76
2023/08/13 02:04:44;;;;;;;11.03;10.43;;;;;;;17.02;85.26;93274.66;5105317;28;20962;-75
2023/08/13 02:07:10;;;;;;;9.90;9.30;;;;;;;17.06;85.65;93277.47;5088677;28;20474;-75
2023/08/13 02:09:35;;;;;;;11.37;10.67;;;;;;;17.07;85.61;93285.09;5068721;28;20192;-75
2023/08/13 02:12:01;;;;;;;10.80;10.10;;;;;;;16.96;85.14;93267.97;5068383;28;20240;-76
2023/08/13 02:14:27;;;;;;;10.20;9.50;;;;;;;17.02;85.10;93281.78;5069093;28;20187;-75
2023/08/13 02:16:52;;;;;;;10.90;9.93;;;;;;;16.93;85.94;93276.47;5063591;28;20227;-75
2023/08/13 02:19:18;;;;;;;10.07;9.47;;;;;;;16.89;86.02;93283.41;5067548;28;20213;-75
2023/08/13 02:21:43;;;;;;;11.30;10.60;;;;;;;16.91;85.87;93277.84;5071404;28;20225;-75
2023/08/13 02:24:09;;;;;;;11.17;10.57;;;;;;;16.83;86.46;93281.97;5072964;28;20205;-75
2023/08/13 02:26:34;;;;;;;11.20;10.50;;;;;;;16.97;86.66;93282.69;5076838;28;20265;-75
2023/08/13 02:28:59;;;;;;;10.90;10.30;;;;;;;16.90;87.40;93284.97;5090107;28;20197;-75
2023/08/13 02:31:25;;;;;;;11.73;11.03;;;;;;;16.92;87.37;93282.81;5084461;28;20193;-75
2023/08/13 02:33:50;;;;;;;10.87;10.27;;;;;;;16.86;87.81;93286.66;5072358;28;20181;-75
2023/08/13 02:36:15;;;;;;;10.87;10.17;;;;;;;16.72;87.13;93278.00;5072923;28;20182;-75
2023/08/13 02:38:41;;;;;;;11.80;11.00;;;;;;;16.88;86.68;93281.88;5093568;28;20220;-75
2023/08/13 02:41:06;;;;;;;12.17;11.37;;;;;;;16.56;86.91;93234.63;5092544;28;20239;-75
2023/08/13 02:43:48;;;;;;;11.50;10.80;;;;;;;16.88;85.43;93273.16;5073649;28;20287;-75
2023/08/13 02:46:13;;;;;;;11.50;10.80;;;;;;;16.80;86.49;93287.84;5071243;28;20186;-75
2023/08/13 02:48:39;;;;;;;11.13;10.37;;;;;;;16.71;87.06;93280.94;5091212;28;20240;-75
2023/08/13 02:51:04;;;;;;;11.20;10.43;;;;;;;16.59;88.11;93286.75;5092390;28;20177;-75
2023/08/13 02:53:29;;;;;;;12.17;11.10;;;;;;;16.34;89.39;93271.50;5073870;28;20288;-75
2023/08/13 02:55:55;;;;;;;11.67;10.77;;;;;;;16.51;89.10;93284.06;5072646;28;20193;-75
2023/08/13 02:58:20;;;;;;;10.57;9.77;;;;;;;16.43;89.88;93280.25;5088235;28;20224;-75
2023/08/13 03:00:45;;;;;;;12.30;11.50;;;;;;;16.52;89.33;93282.97;5091491;28;20240;-76
2023/08/13 03:03:11;;;;;;;12.67;11.57;;;;;;;16.49;89.17;93275.66;5091810;28;20223;-75
2023/08/13 03:05:36;;;;;;;11.93;10.73;;;;;;;16.61;89.62;93279.31;5092059;28;20238;-75
2023/08/13 03:08:02;;;;;;;12.67;11.50;;;;;;;16.66;89.24;93289.75;5085861;28;20300;-75
2023/08/13 03:10:27;;;;;;;12.80;11.60;;;;;;;16.50;89.18;93272.72;5090427;28;20216;-75
2023/08/13 03:12:52;;;;;;;12.17;11.17;;;;;;;16.46;89.73;93282.31;5091287;28;20248;-75
2023/08/13 03:15:18;;;;;;;11.67;10.90;;;;;;;16.49;88.87;93289.63;5092591;28;20183;-75
2023/08/13 03:17:43;;;;;;;11.60;10.83;;;;;;;16.43;89.34;93282.88;5090344;28;20311;-75
2023/08/13 03:20:09;;;;;;;11.63;10.27;;;;;;;16.33;89.52;93274.41;5091921;28;20270;-75
2023/08/13 03:22:34;;;;;;;12.80;11.87;;;;;;;16.43;89.20;93293.41;5091140;28;20937;-75
2023/08/13 03:24:59;;;;;;;12.03;10.07;;;;;;;16.39;90.05;93286.41;5091826;28;20181;-75
2023/08/13 03:27:25;;;;;;;12.13;11.23;;;;;;;16.33;90.37;93287.59;5094725;28;20217;-75
2023/08/13 03:29:50;;;;;;;12.10;11.20;;;;;;;16.34;90.62;93289.94;5082428;28;20197;-75
2023/08/13 03:32:16;;;;;;;12.10;11.10;;;;;;;16.31;90.24;93277.31;5072280;28;20233;-75
2023/08/13 03:34:41;;;;;;;12.70;11.70;;;;;;;16.10;90.88;93294.66;5070377;28;20192;-75
2023/08/13 03:37:06;;;;;;;12.13;11.17;;;;;;;16.26;90.66;93292.47;5057650;28;20264;-75
2023/08/13 03:39:32;;;;;;;12.47;11.57;;;;;;;15.66;90.07;93189.19;5071308;28;20251;-75
2023/08/13 03:41:57;;;;;;;13.23;12.03;;;;;;;16.34;90.20;93289.16;5070296;28;20248;-75
2023/08/13 03:44:23;;;;;;;11.73;10.83;;;;;;;16.40;89.91;93296.66;5084243;28;20189;-75
2023/08/13 03:46:48;;;;;;;12.47;11.47;;;;;;;16.53;89.75;93293.22;5090300;28;20252;-75
2023/08/13 03:49:13;;;;;;;12.43;11.23;;;;;;;16.46;91.13;93290.22;5091812;28;20192;-75
2023/08/13 03:51:39;;;;;;;12.00;11.27;;;;;;;16.49;90.04;93287.00;5090809;28;20190;-73
2023/08/13 03:54:04;;;;;;;11.57;10.73;;;;;;;16.47;90.92;93277.84;5091575;28;20193;-75
2023/08/13 03:56:29;;;;;;;11.80;10.90;;;;;;;16.47;92.08;93286.50;5090834;28;20185;-75
2023/08/13 03:58:55;;;;;;;12.33;11.33;;;;;;;16.52;92.03;93293.50;5091290;28;20192;-75
2023/08/13 04:01:20;;;;;;;11.87;11.17;;;;;;;16.51;92.39;93279.56;5088613;28;20217;-75
2023/08/13 04:03:45;;;;;;;11.57;10.77;;;;;;;16.59;92.62;93289.38;5091274;28;20177;-75
2023/08/13 04:06:11;;;;;;;12.43;11.43;;;;;;;16.69;91.59;93302.34;5091004;28;20188;-75
2023/08/13 04:08:36;;;;;;;12.07;11.27;;;;;;;16.67;92.64;93306.38;5090744;28;20451;-75
2023/08/13 04:11:02;;;;;;;11.63;10.77;;;;;;;16.62;91.85;93291.44;5090771;28;20260;-75
2023/08/13 04:13:27;;;;;;;11.90;11.10;;;;;;;16.91;90.67;93305.00;5098580;28;20228;-75
2023/08/13 04:15:53;;;;;;;12.73;11.73;;;;;;;16.87;90.10;93319.09;5090540;28;20172;-75
2023/08/13 04:18:18;;;;;;;11.90;11.00;;;;;;;16.93;90.23;93315.25;5090731;28;20225;-75
2023/08/13 04:20:43;;;;;;;13.07;12.03;;;;;;;17.04;90.72;93313.94;5089817;28;20365;-75
2023/08/13 04:23:09;;;;;;;12.53;11.27;;;;;;;16.95;90.90;93311.22;5090559;28;20224;-75
2023/08/13 04:25:34;;;;;;;12.70;11.70;;;;;;;17.02;90.20;93318.72;5090745;28;20172;-75
2023/08/13 04:28:00;;;;;;;12.80;11.80;;;;;;;17.12;89.19;93321.91;5090451;28;20251;-75
2023/08/13 04:30:25;;;;;;;12.53;11.33;;;;;;;17.23;89.07;93328.47;5080424;28;20233;-75
2023/08/13 04:32:54;;;;;;;12.90;12.07;;;;;;;17.29;89.05;93323.88;5090399;28;20232;-76
2023/08/13 04:35:21;;;;;;;12.50;11.63;;;;;;;17.50;88.18;93333.66;5078258;28;20203;-75
2023/08/13 04:37:46;;;;;;;13.40;12.23;;;;;;;17.46;88.13;93335.31;5078282;28;20212;-75
2023/08/13 04:40:12;;;;;;;12.23;11.33;;;;;;;17.36;87.95;93318.94;5070061;28;20194;-75
2023/08/13 04:42:37;;;;;;;12.13;11.13;;;;;;;17.62;87.49;93337.59;5080777;28;20209;-75
2023/08/13 04:45:03;;;;;;;13.37;12.37;;;;;;;17.62;86.97;93333.06;5086591;28;20178;-76
2023/08/13 04:47:28;;;;;;;13.07;11.97;;;;;;;17.39;86.29;93342.09;5080886;28;20224;-75
2023/08/13 04:49:54;;;;;;;13.07;12.20;;;;;;;17.36;86.44;93332.13;5090077;28;20214;-75
2023/08/13 04:52:19;;;;;;;12.03;11.23;;;;;;;17.53;85.43;93311.91;5089900;28;20220;-76
2023/08/13 04:54:46;;;;;;;12.87;11.87;;;;;;;17.66;84.81;93346.47;5090039;28;20217;-75
2023/08/13 04:57:11;;;;;;;12.27;11.37;;;;;;;17.75;83.62;93352.56;5089561;28;20250;-75
2023/08/13 04:59:37;;;;;;;12.43;11.63;;;;;;;17.92;84.21;93350.78;5089236;28;20200;-75
2023/08/13 05:02:02;;;;;;;11.87;11.07;;;;;;;18.23;82.43;93350.72;5088765;28;20266;-76
2023/08/13 05:04:27;;;;;;;12.50;11.63;;;;;;;18.31;80.45;93348.09;5077533;28;20216;-75
2023/08/13 05:06:53;;;;;;;11.47;10.67;;;;;;;18.25;82.18;93348.56;5089642;28;20241;-75
2023/08/13 05:09:18;;;;;;;12.03;11.20;;;;;;;18.28;83.16;93345.28;5089973;28;20970;-75
2023/08/13 05:11:43;;;;;;;12.17;11.37;;;;;;;18.66;79.81;93349.00;5092882;28;20235;-75
2023/08/13 05:14:09;;;;;;;12.07;11.27;;;;;;;18.49;79.78;93322.53;5104431;28;20345;-75
2023/08/13 05:16:34;;;;;;;12.23;11.23;;;;;;;18.85;79.00;93346.81;5097760;28;20220;-75
2023/08/13 05:18:59;;;;;;;12.60;10.13;;;;;;;18.87;79.29;93355.22;5092047;28;20245;-75
2023/08/13 05:21:25;;;;;;;11.67;10.80;;;;;;;18.81;79.95;93356.47;5088676;28;20182;-75
2023/08/13 05:23:51;;;;;;;11.37;10.57;;;;;;;18.89;79.66;93353.84;5069346;28;20204;-75
2023/08/13 05:26:17;;;;;;;11.77;10.73;;;;;;;18.42;80.97;93351.28;5069602;28;20190;-75
2023/08/13 05:28:42;;;;;;;11.33;10.63;;;;;;;18.88;79.86;93357.56;5068939;28;20220;-75
2023/08/13 05:31:07;;;;;;;11.40;10.70;;;;;;;19.08;79.23;93353.53;5067543;28;20207;-76
2023/08/13 05:33:33;;;;;;;12.13;11.33;;;;;;;19.23;79.00;93353.03;5068021;28;20270;-76
2023/08/13 05:35:58;;;;;;;11.70;10.80;;;;;;;19.44;76.18;93358.50;5069397;28;20186;-75
2023/08/13 05:38:23;;;;;;;11.50;10.67;;;;;;;19.49;75.33;93359.09;5067765;28;20252;-75
2023/08/13 05:40:49;;;;;;;11.23;10.53;;;;;;;19.74;72.76;93366.22;5069429;28;20271;-75
2023/08/13 05:43:14;;;;;;;11.23;10.23;;;;;;;19.63;72.65;93329.75;5084869;28;20225;-75
2023/08/13 05:45:43;;;;;;;11.03;10.33;;;;;;;20.05;74.44;93369.41;5090062;28;20194;-75
2023/08/13 05:48:08;;;;;;;11.77;10.77;;;;;;;19.98;73.91;93365.69;5087764;28;20226;-75
2023/08/13 05:50:34;;;;;;;11.10;10.30;;;;;;;19.76;75.52;93345.50;5089733;28;20182;-75
2023/08/13 05:52:59;;;;;;;12.93;10.70;;;;;;;20.75;71.87;93354.72;5088913;28;20338;-75
2023/08/13 05:55:24;;;;;;;12.67;10.83;;;;;;;21.32;69.56;93379.63;5089000;28;20246;-76
2023/08/13 05:57:50;;;;;;;11.33;10.53;;;;;;;24.02;58.78;93380.09;5088720;28;20228;-75
2023/08/13 06:00:16;;;;;;;10.55;9.85;;;;;;;27.33;49.32;93390.19;5081833;28;20210;-76
2023/08/13 06:02:42;;;;;;;10.90;10.10;;;;;;;29.94;41.74;93399.41;5083652;28;20231;-75
2023/08/13 06:05:08;;;;;;;10.57;9.70;;;;;;;30.74;38.09;93402.28;5089234;28;20239;-75
2023/08/13 06:07:34;;;;;;;9.88;9.27;;;;;;;29.39;40.04;93396.06;5096154;28;20292;-75
2023/08/13 06:10:00;;;;;;;9.68;8.98;;;;;;;32.22;35.46;93405.47;5088929;28;20608;-75
2023/08/13 06:12:25;;;;;;;9.88;8.93;;;;;;;32.62;32.89;93401.44;5088596;28;20232;-75
2023/08/13 06:14:51;;;;;;;9.70;8.80;;;;;;;32.44;33.44;93412.34;5089262;28;20184;-75
2023/08/13 06:17:16;;;;;;;9.52;8.93;;;;;;;32.10;33.81;93395.13;5088751;28;20297;-75
2023/08/13 06:19:42;;;;;;;9.75;9.02;;;;;;;31.04;35.60;93391.13;5088995;28;20215;-75
2023/08/13 06:22:08;;;;;;;9.25;8.63;;;;;;;32.94;31.42;93409.34;5088474;28;20226;-75
2023/08/13 06:24:34;;;;;;;8.90;8.20;;;;;;;31.54;32.64;93408.81;5088094;28;20234;-76
2023/08/13 06:26:59;;;;;;;9.90;9.02;;;;;;;27.65;39.91;93391.34;5088222;28;20234;-76
2023/08/13 06:29:24;;;;;;;9.82;9.23;;;;;;;25.12;46.21;93378.94;5089105;28;20176;-76
2023/08/13 06:31:50;;;;;;;10.45;9.75;;;;;;;23.97;52.28;93384.94;5088295;28;20227;-75
2023/08/13 06:34:15;;;;;;;10.73;9.93;;;;;;;23.44;54.05;93380.81;5089027;28;20172;-75
2023/08/13 06:36:41;;;;;;;11.23;10.38;;;;;;;23.14;55.29;93371.53;5088342;28;20236;-75
2023/08/13 06:39:06;;;;;;;10.30;9.43;;;;;;;22.75;56.02;93383.72;5087429;28;20189;-75
2023/08/13 06:41:32;;;;;;;10.18;9.48;;;;;;;22.61;58.55;93377.94;5088513;28;20270;-75
2023/08/13 06:43:57;;;;;;;10.40;9.70;;;;;;;22.35;59.53;93374.03;5088867;28;20186;-75
2023/08/13 06:46:22;;;;;;;10.85;10.05;;;;;;;21.95;60.30;93377.31;5087837;28;20218;-75
2023/08/13 06:48:48;;;;;;;10.55;9.85;;;;;;;22.27;59.63;93375.69;5089107;28;20195;-75
2023/08/13 06:51:13;;;;;;;11.75;10.35;;;;;;;22.49;57.97;93387.78;5088833;28;20199;-75
2023/08/13 06:53:39;;;;;;;10.23;9.40;;;;;;;22.33;58.85;93389.53;5087598;28;20231;-75
2023/08/13 06:56:06;;;;;;;11.20;10.40;;;;;;;21.97;61.25;93387.63;5087428;28;20191;-75
2023/08/13 06:58:31;;;;;;;11.57;10.50;;;;;;;21.70;63.13;93377.53;5087373;28;20254;-75
2023/08/13 07:00:57;;;;;;;11.38;10.57;;;;;;;22.30;59.72;93377.69;5087536;28;20208;-75
2023/08/13 07:03:22;;;;;;;11.50;10.52;;;;;;;22.66;58.00;93380.41;5088470;28;20284;-75
2023/08/13 07:05:48;;;;;;;10.93;10.23;;;;;;;22.61;57.44;93369.19;5088635;28;20183;-75
2023/08/13 07:08:13;;;;;;;10.10;9.50;;;;;;;22.64;59.52;93382.59;5091815;28;20225;-75
2023/08/13 07:10:39;;;;;;;11.10;10.27;;;;;;;22.92;55.27;93362.16;5091763;28;20283;-75
2023/08/13 07:13:05;;;;;;;11.32;10.48;;;;;;;22.54;56.38;93372.38;5077377;28;20224;-75
2023/08/13 07:15:30;;;;;;;10.93;10.13;;;;;;;22.67;54.94;93357.19;5072692;28;20214;-75
2023/08/13 07:17:55;;;;;;;10.45;9.75;;;;;;;22.71;55.76;93366.81;5071423;28;20242;-75
2023/08/13 07:20:21;;;;;;;10.50;9.82;;;;;;;22.90;55.10;93375.03;5071911;28;20215;-75
2023/08/13 07:22:47;;;;;;;11.43;10.52;;;;;;;23.06;56.25;93373.22;5062445;28;20223;-75
2023/08/13 07:25:13;;;;;;;10.75;10.05;;;;;;;23.17;55.01;93368.97;5068606;28;20234;-75
2023/08/13 07:27:39;;;;;;;10.77;10.18;;;;;;;23.03;54.57;93365.13;5082420;28;20218;-76
2023/08/13 07:30:09;;;;;;;10.65;9.95;;;;;;;23.07;54.68;93353.47;5078424;28;20276;-75
2023/08/13 07:32:42;;;;;;;10.60;9.90;;;;;;;23.17;53.31;93365.53;5091582;28;20227;-75
2023/08/13 07:35:08;;;;;;;10.30;9.40;;;;;;;23.25;54.19;93364.66;5091854;28;20179;-75
2023/08/13 07:37:34;;;;;;;10.57;9.77;;;;;;;23.17;53.44;93368.97;5091562;28;20254;-75
2023/08/13 07:40:00;;;;;;;9.85;9.20;;;;;;;23.41;53.69;93368.91;5089478;28;20212;-75
2023/08/13 07:42:25;;;;;;;11.00;10.30;;;;;;;23.61;53.68;93367.94;5091532;28;20223;-75
2023/08/13 07:44:51;;;;;;;10.73;9.93;;;;;;;23.76;53.51;93369.13;5090707;28;20194;-75
2023/08/13 07:47:17;;;;;;;11.00;10.15;;;;;;;23.94;52.81;93369.59;5083915;28;20229;-75
2023/08/13 07:49:42;;;;;;;10.02;9.23;;;;;;;23.95;51.93;93371.91;5071409;28;20273;-75
2023/08/13 07:52:08;;;;;;;11.27;10.13;;;;;;;23.97;51.83;93369.69;5077559;28;20245;-75
2023/08/13 07:54:35;;;;;;;10.75;9.93;;;;;;;23.94;51.13;93365.00;5090891;28;20263;-75
2023/08/13 07:57:00;;;;;;;10.20;9.60;;;;;;;23.88;50.38;93370.94;5090842;28;20223;-75
2023/08/13 07:59:26;;;;;;;11.27;10.38;;;;;;;23.65;52.13;93365.38;5091221;28;20222;-75
2023/08/13 08:01:51;;;;;;;9.68;9.13;;;;;;;23.85;53.36;93366.28;5095499;28;20249;-75
2023/08/13 08:04:16;;;;;;;10.38;9.40;;;;;;;24.10;51.30;93359.72;5106933;28;20200;-75
2023/08/13 08:06:42;;;;;;;9.07;8.57;;;;;;;24.15;49.92;93365.59;5087860;28;20227;-75
2023/08/13 08:09:08;;;;;;;10.07;9.38;;;;;;;24.18;49.68;93359.56;5069525;28;20206;-75
2023/08/13 08:11:33;;;;;;;10.30;9.70;;;;;;;24.21;50.55;93358.88;5072428;28;20216;-75
2023/08/13 08:13:59;;;;;;;9.77;9.18;;;;;;;24.37;50.01;93369.53;5092300;28;20222;-75
2023/08/13 08:16:24;;;;;;;9.18;8.57;;;;;;;24.45;48.53;93352.59;5102674;28;20204;-75
2023/08/13 08:18:50;;;;;;;10.27;9.55;;;;;;;24.28;53.43;93358.28;5090154;28;20210;-75
2023/08/13 08:21:15;;;;;;;9.80;8.93;;;;;;;24.41;51.14;93355.16;5091199;28;20220;-76
2023/08/13 08:23:41;;;;;;;9.90;9.13;;;;;;;24.55;48.36;93352.81;5089680;28;20249;-76
2023/08/13 08:26:06;;;;;;;9.88;9.18;;;;;;;24.29;47.74;93349.13;5091027;28;20181;-76
2023/08/13 08:28:32;;;;;;;9.70;9.07;;;;;;;24.21;49.14;93347.41;5091563;28;20257;-76
2023/08/13 08:30:57;;;;;;;10.15;9.55;;;;;;;24.10;48.10;93341.03;5092250;28;20214;-75
2023/08/13 08:33:23;;;;;;;10.30;9.70;;;;;;;24.13;48.36;93340.34;5102412;28;20215;-75
2023/08/13 08:35:49;;;;;;;9.65;8.98;;;;;;;23.92;49.14;93329.13;5090987;28;20179;-76
2023/08/13 08:38:14;;;;;;;9.95;9.35;;;;;;;24.13;51.02;93333.13;5089473;28;20304;-75
2023/08/13 08:40:45;;;;;;;9.48;8.77;;;;;;;24.20;48.80;93330.63;5090588;28;20234;-76
2023/08/13 08:43:11;;;;;;;10.07;9.27;;;;;;;24.44;46.98;93338.44;5089979;28;20292;-76
2023/08/13 08:45:38;;;;;;;9.65;8.77;;;;;;;24.35;46.49;93342.41;5090969;28;20243;-76
2023/08/13 08:48:07;;;;;;;9.63;9.00;;;;;;;24.39;47.82;93316.59;5088844;28;20236;-75
2023/08/13 08:50:35;;;;;;;9.85;9.18;;;;;;;24.58;46.98;93324.63;5079880;28;20214;-75
2023/08/13 08:53:01;;;;;;;10.82;10.02;;;;;;;24.69;45.67;93326.47;5089074;28;20253;-75
2023/08/13 08:55:26;;;;;;;8.88;8.23;;;;;;;24.46;47.30;93335.44;5090592;28;20184;-75
2023/08/13 08:57:54;;;;;;;9.50;8.90;;;;;;;24.45;45.50;93331.97;5089103;28;20286;-76
2023/08/13 09:00:20;;;;;;;9.77;9.18;;;;;;;24.27;47.19;93320.13;5090441;28;20282;-75
2023/08/13 09:02:45;;;;;;;10.18;9.57;;;;;;;24.41;46.74;93320.44;5089875;28;20235;-76
2023/08/13 09:05:11;;;;;;;9.63;8.93;;;;;;;24.65;46.40;93314.13;5090384;28;20186;-75
2023/08/13 09:07:42;;;;;;;9.75;9.10;;;;;;;24.68;45.91;93313.47;5093671;28;20231;-75
2023/08/13 09:10:07;;;;;;;9.48;8.85;;;;;;;24.75;47.16;93308.25;5090211;28;20243;-75
2023/08/13 09:12:37;;;;;;;10.32;9.30;;;;;;;24.87;46.86;93310.84;5092545;28;20235;-75
2023/08/13 09:15:07;;;;;;;9.52;8.93;;;;;;;24.66;46.59;93305.00;5096114;28;20192;-76
2023/08/13 09:17:33;;;;;;;9.82;9.13;;;;;;;24.86;46.56;93315.41;5101952;28;20296;-75
2023/08/13 09:20:00;;;;;;;10.48;9.60;;;;;;;24.87;46.96;93294.81;5090003;28;20203;-76
2023/08/13 09:22:32;;;;;;;9.45;8.95;;;;;;;25.22;44.52;93312.34;5088120;28;20220;-75
2023/08/13 09:25:00;;;;;;;11.00;9.82;;;;;;;25.23;42.21;93308.53;5090002;28;20188;-75
2023/08/13 09:27:26;;;;;;;10.18;9.38;;;;;;;25.20;43.99;93308.44;5089122;28;20211;-75
2023/08/13 09:29:54;;;;;;;9.13;8.52;;;;;;;25.20;44.30;93303.88;5080194;28;20199;-75
2023/08/13 09:32:20;;;;;;;9.95;9.10;;;;;;;25.26;43.92;93307.06;5088542;28;20220;-75
2023/08/13 09:34:46;;;;;;;10.18;9.38;;;;;;;25.56;43.94;93309.97;5089494;28;20188;-75
2023/08/13 09:37:11;;;;;;;9.63;9.02;;;;;;;25.41;42.99;93308.13;5087652;28;20222;-76
2023/08/13 09:39:37;;;;;;;9.98;9.38;;;;;;;25.29;44.03;93301.00;5101608;28;20235;-75
2023/08/13 09:42:05;;;;;;;9.20;8.60;;;;;;;25.19;44.31;93297.00;5076096;28;20254;-76
2023/08/13 09:44:31;;;;;;;10.45;8.95;;;;;;;25.13;43.03;93308.31;5090008;28;20521;-76
2023/08/13 09:47:08;;;;;;;10.15;9.45;;;;;;;25.02;41.98;93308.13;5094980;28;20291;-76
2023/08/13 09:49:34;;;;;;;9.40;8.77;;;;;;;25.27;41.81;93305.94;5094706;28;20252;-76
2023/08/13 09:52:02;;;;;;;9.40;8.75;;;;;;;25.44;42.79;93318.91;5084947;28;20284;-75
2023/08/13 09:54:36;;;;;;;10.43;9.70;;;;;;;25.90;42.34;93314.41;5100335;28;20194;-75
2023/08/13 09:57:03;;;;;;;9.30;8.70;;;;;;;26.10;39.77;93305.22;5089089;28;20218;-76
2023/08/13 09:59:36;;;;;;;10.10;9.40;;;;;;;26.09;41.13;93320.50;5089381;28;20214;-76
2023/08/13 10:02:11;;;;;;;8.90;8.38;;;;;;;26.27;42.43;93308.16;5089092;28;20367;-76
2023/08/13 10:04:38;;;;;;;8.88;8.25;;;;;;;26.32;41.76;93305.19;5089912;28;20184;-75
2023/08/13 10:07:05;;;;;;;9.57;8.98;;;;;;;26.93;40.67;93306.91;5088821;28;20234;-76
2023/08/13 10:09:32;;;;;;;9.77;9.18;;;;;;;26.83;41.28;93312.88;5089288;28;20749;-76
2023/08/13 10:11:57;;;;;;;9.63;8.82;;;;;;;26.26;41.73;93311.19;5092288;28;20223;-76
2023/08/13 10:14:23;;;;;;;8.95;8.45;;;;;;;25.90;42.14;93303.69;5088434;28;20205;-76
2023/08/13 10:16:49;;;;;;;10.00;9.30;;;;;;;25.64;41.99;93295.56;5088284;28;20228;-75
2023/08/13 10:19:15;;;;;;;9.23;8.73;;;;;;;25.83;43.20;93304.34;5089388;28;20192;-76
2023/08/13 10:21:41;;;;;;;10.13;9.43;;;;;;;26.39;40.36;93313.34;5087607;28;20327;-75
2023/08/13 10:24:11;;;;;;;9.73;9.13;;;;;;;26.86;40.08;93306.78;5089145;28;20173;-76
2023/08/13 10:26:45;;;;;;;12.80;10.98;;;;;;;27.12;40.27;93306.75;5090939;28;20208;-75
2023/08/13 10:29:18;;;;;;;9.57;8.93;;;;;;;26.69;40.13;93300.81;5096919;28;20233;-75
2023/08/13 10:31:54;;;;;;;9.88;9.20;;;;;;;26.90;40.75;93302.25;5095957;28;20235;-76
2023/08/13 10:34:19;;;;;;;9.52;8.82;;;;;;;26.65;41.68;93286.59;5074910;28;20192;-75
2023/08/13 10:36:51;;;;;;;10.45;9.68;;;;;;;26.26;41.50;93306.63;5085587;28;20229;-75
2023/08/13 10:39:38;;;;;;;9.60;8.90;;;;;;;25.85;43.02;93293.28;5108280;28;20176;-76
2023/08/13 10:42:33;;;;;;;9.77;9.18;;;;;;;25.72;43.94;93292.69;5084150;28;20255;-75
2023/08/13 10:45:08;;;;;;;9.88;9.10;;;;;;;25.59;44.89;93285.94;5073049;28;20177;-76
2023/08/13 10:47:45;;;;;;;9.98;9.38;;;;;;;25.54;43.77;93286.25;5072832;28;20266;-76
2023/08/13 10:50:18;;;;;;;10.02;9.32;;;;;;;25.77;43.04;93299.63;5072351;28;20207;-76
2023/08/13 10:52:47;;;;;;;10.05;9.35;;;;;;;25.94;42.26;93294.59;5083141;28;20230;-76
2023/08/13 10:55:16;;;;;;;9.85;9.15;;;;;;;25.79;41.95;93300.06;5092458;28;20177;-76
2023/08/13 10:57:41;;;;;;;10.65;9.65;;;;;;;26.02;43.29;93298.19;5092202;28;20227;-75
2023/08/13 11:00:12;;;;;;;9.60;9.00;;;;;;;26.32;41.42;93291.81;5092478;28;20197;-76
2023/08/13 11:02:38;;;;;;;9.38;8.77;;;;;;;26.23;39.60;93288.59;5092063;28;20239;-76
2023/08/13 11:05:03;;;;;;;8.63;8.13;;;;;;;26.54;41.11;93280.28;5091595;28;20244;-75
2023/08/13 11:07:31;;;;;;;9.80;9.20;;;;;;;26.94;40.41;93281.63;5091031;28;20232;-76
2023/08/13 11:09:56;;;;;;;9.60;8.80;;;;;;;26.84;40.08;93276.88;5090516;28;20180;-76
2023/08/13 11:12:22;;;;;;;9.43;8.65;;;;;;;26.66;40.51;93292.72;5082989;28;20221;-76
2023/08/13 11:14:48;;;;;;;9.90;9.10;;;;;;;26.76;40.24;93296.69;5072186;28;20199;-76
2023/08/13 11:17:13;;;;;;;9.75;9.05;;;;;;;26.82;40.36;93289.91;5071915;28;20220;-75
2023/08/13 11:19:39;;;;;;;9.27;8.68;;;;;;;26.54;41.52;93279.50;5072134;28;20213;-76
2023/08/13 11:22:04;;;;;;;9.68;8.82;;;;;;;26.97;41.54;93287.03;5071468;28;20243;-76